Terminal Aerodrome Forecast
Issued by NWS

Home | Current Version | Previous Version | Text Only | Print | Product List | Glossary On
Versions: 1 2 3 4 5 6 7 8 9 10 11 12 13 14 15 16 17 18 19 20 21 22 23 24 25 26 27 28 29 30 31 32 33 34 35 36
000
FTAK31 PAFA 062339
TAFABT
TAF
PABT 062339Z 0700/0724 11007KT 4SM FU FEW050 FEW090 SCT120
     FM070900 VRB05KT 4SM FU SCT050 SCT100 BKN200
     FM071800 21005KT 4SM -SHRA FU SCT025 OVC050=

USA.gov is the U.S. government's official web portal to all federal, state and local government web resources and services.